ADDS METAR Data INFO
IDs: Format: Raw Decoded Include TAF

Data at: 0636 UTC 15 Dec 2017

PAWM 150556Z AUTO 08003KT 9SM -SN OVC032 M06/M07 A2957 RMK AO2 SNB23E33B49 SLP020 P0000 60000 T10561072 11050 21061 56000 FZRANO
PAWM 150456Z AUTO 08003KT 10SM OVC032 M06/M07 A2957 RMK AO2 SNE47 SLP019 P0000 T10611072 FZRANO
PAWM 150356Z AUTO 00000KT 9SM -SN OVC034 M06/M07 A2957 RMK AO2 SNE05B36 SLP019 P0000 T10611072 FZRANO
PAWM 150256Z AUTO 15003KT 9SM -SN OVC036 M06/M08 A2957 RMK AO2 SNB52 SLP020 P0000 60000 T10561078 52002 FZRANO
PAWM 150156Z AUTO 00000KT 10SM SCT027 OVC038 M06/M08 A2957 RMK AO2 SLP018 T10561078 FZRANO
PAWM 150110Z AUTO 22003KT 10SM SCT026 OVC040 M06/M07 A2957 RMK AO2 FZRANO
PAWM 150056Z AUTO 22005KT 10SM BKN026 BKN031 OVC040 M06/M07 A2957 RMK AO2 SLP018 T10561072 FZRANO
PAWM 150041Z AUTO 23006KT 10SM BKN026 OVC042 M06/M07 A2957 RMK AO2 FZRANO
PAWM 142356Z AUTO 22006KT 9SM FEW022 OVC042 M05/M07 A2957 RMK AO2 SNB36E46 SLP017 P0000 60000 T10501072 11044 21056 53005 FZRANO
PAWM 142256Z AUTO 22006KT 10SM FEW022 OVC044 M06/M07 A2956 RMK AO2 SLP015 T10561067 FZRANO
PAWM 142156Z AUTO 21004KT 9SM OVC050 M06/M07 A2955 RMK AO2 SLP012 T10561072 FZRANO
PAWM 142056Z AUTO 23008KT 9SM OVC050 M05/M06 A2955 RMK AO2 SLP012 T10501061 53004 FZRANO
PAWM 141956Z AUTO 22006KT 9SM OVC050 M06/M06 A2955 RMK AO2 SLP010 T10561061 FZRANO
PAWM 141856Z AUTO 24006KT 9SM OVC055 M05/M06 A2954 RMK AO2 SLP008 T10501056 FZRANO
PAWM 141756Z AUTO 22007KT 9SM BKN039 OVC055 M04/M06 A2954 RMK AO2 SLP007 60000 T10441056 11022 21044 51012 FZRANO
PAWM 141656Z AUTO 23007KT 9SM FEW016 OVC037 M04/M05 A2953 RMK AO2 SLP005 T10391050 FZRANO
PAWM 141649Z AUTO 23007KT 9SM FEW016 OVC039 M04/M04 A2953 RMK AO2 FZRANO
PAWM 141622Z AUTO 22009KT 9SM OVC016 M04/M04 A2952 RMK AO2 FZRANO
PAWM 141608Z AUTO 23011KT 9SM OVC014 M04/M04 A2952 RMK AO2 FZRANO
PAWM 141556Z AUTO 23007KT 9SM FEW011 BKN016 OVC028 M04/M04 A2952 RMK AO2 SLP001 T10391044 FZRANO
PAWM 141545Z AUTO 24013G17KT 9SM SCT011 BKN016 OVC100 M04/M04 A2952 RMK AO2 FZRANO
PAWM 141456Z AUTO 24011G16KT 9SM OVC009 M03/M04 A2950 RMK AO2 SLP996 60000 T10331039 52015 FZRANO
PAWM 141415Z AUTO 23011KT 9SM OVC009 M03/M03 A2949 RMK AO2 CIG 005V010 FZRANO
PAWM 141356Z AUTO 24012KT 6SM BR OVC005 M03/M03 A2948 RMK AO2 SLP989 T10281033 FZRANO
PAWM 141335Z AUTO 22010KT 8SM OVC005 M03/M03 A2949 RMK AO2 FZRANO
PAWM 141256Z AUTO 21010KT 3SM BR OVC003 M03/M03 A2948 RMK AO2 SNB26E36 SLP987 P0000 T10281028 FZRANO
PAWM 141232Z AUTO 22008KT 5SM -SN BR OVC003 M02/M03 A2947 RMK AO2 SNB26 P0000 FZRANO
PAWM 141222Z AUTO 22011KT 2SM BR OVC003 M02/M03 A2946 RMK AO2 VIS 1 1/4V5 FZRANO
PAWM 141212Z AUTO 22010KT 1SM BR OVC003 M02/M03 A2946 RMK AO2 FZRANO
PAWM 141156Z AUTO 22008KT 2SM BR OVC003 M02/M03 A2946 RMK AO2 VIS 1 3/4V3 SLP980 60000 T10221028 10006 21022 53017 FZRANO
PAWM 141150Z AUTO 22011G17KT 2SM BR OVC003 M02/M03 A2946 RMK AO2 VIS 3/4V3 FZRANO
PAWM 141146Z AUTO 22009G17KT 1SM BR OVC003 M02/M03 A2946 RMK AO2 FZRANO
PAWM 141056Z AUTO 19006KT 1/2SM FZFG OVC003 M02/M02 A2944 RMK AO2 SLP973 T10171017 FZRANO
PAWM 141037Z AUTO 19008KT 1/2SM FZFG OVC003 M01/M01 A2943 RMK AO2 FZRANO
PAWM 140956Z AUTO 18005KT 1/4SM FZFG OVC003 M01/M01 A2943 RMK AO2 UPE30 SLP968 P0000 T10061006 FZRANO
PAWM 140856Z AUTO 16006KT 1/4SM UP FG OVC003 00/M01 A2941 RMK AO2 UPB34SNE34 SLP962 P0000 60000 T00001006 400220000 51008 FZRANO
PAWM 140756Z AUTO 18006KT 1/4SM -SN FG OVC003 00/M01 A2940 RMK AO2 UPE55SNB55 SLP960 P0000 T00001006 FZRANO
PAWM 140656Z AUTO 20005KT 1/4SM UP FG OVC003 00/00 A2939 RMK AO2 RAE18B37E40UPB40 SLP957 P0000 T00000000 FZRANO
PAWM 140646Z AUTO 20006KT 1/4SM UP FG OVC003 00/00 A2939 RMK AO2 RAE18B37E40UPB40 P0000 FZRANO
PAWM 140624Z AUTO 21005KT 1/2SM FG OVC003 01/00 A2939 RMK AO2 RAE18 P0000 FZRANO
PAWM 140556Z AUTO 24005KT 1SM -RA BR OVC003 01/01 A2938 RMK AO2 UPE25RAB25 SLP954 P0000 60000 T00060006 10017 20006 53010 FZRANO
PAWM 140549Z AUTO 24005KT 1 3/4SM -RA BR OVC003 01/01 A2938 RMK AO2 UPE25RAB25 P0000 FZRANO
PAWM 140543Z AUTO 23005KT 5SM -RA BR OVC003 01/01 A2938 RMK AO2 UPE25RAB25 P0000 FZRANO
PAWM 140525Z AUTO 23005KT 10SM -RA BKN005 OVC012 01/01 A2938 RMK AO2 UPE25RAB25 CIG 004V008 P0000 FZRANO
PAWM 140516Z AUTO 25006KT 10SM UP BKN007 OVC012 01/01 A2937 RMK AO2 CIG 004V009 P0000 FZRANO
PAWM 140456Z AUTO 27004KT 9SM UP OVC011 01/01 A2937 RMK AO2 RAE54UPB54 SLP950 P0000 T00110006 FZRANO
PAWM 140446Z AUTO 28003KT 10SM -RA BKN011 OVC017 01/01 A2937 RMK AO2 P0000 FZRANO
PAWM 140429Z AUTO 28004KT 4SM -RA BR BKN009 OVC017 01/01 A2937 RMK AO2 CIG 003V012 P0000 FZRANO
PAWM 140424Z AUTO 28004KT 1 1/4SM -RA BR BKN009 OVC019 01/01 A2937 RMK AO2 CIG 006V014 P0000 FZRANO
PAWM 140417Z AUTO 27004KT 3/4SM -RA BR FEW003 BKN011 OVC019 01/01 A2937 RMK AO2 P0000 FZRANO
PAWM 140415Z AUTO 27005KT 1SM -RA BR FEW003 BKN006 OVC011 01/01 A2937 RMK AO2 P0000 FZRANO
PAWM 140406Z AUTO 27005KT 1/2SM -RA FG BKN006 OVC011 01/01 A2936 RMK AO2 CIG 002V008 P0000 FZRANO
PAWM 140356Z AUTO 26004KT 1/2SM -RA FG OVC004 01/01 A2936 RMK AO2 UPB00E06B32E47 CIG 002V007 SLP947 P0000 T00110006 FZRANO
PAWM 140341Z AUTO 27005KT 1/2SM UP FG BKN004 OVC008 01/01 A2936 RMK AO2 RAE32UPB00E06B32 P0000 FZRANO
PAWM 140333Z AUTO 28004KT 3/4SM UP BR BKN004 BKN008 OVC025 01/01 A2936 RMK AO2 RAE32UPB00E06B32 P0000 FZRANO
PAWM 140330Z AUTO 28005KT 1 1/2SM -RA BR BKN004 BKN008 OVC025 01/01 A2936 RMK AO2 UPB00E06 CIG 002V007 P0000 FZRANO
PAWM 140328Z AUTO 29005KT 2 1/2SM -RA BR SCT004 BKN008 OVC025 01/01 A2936 RMK AO2 UPB00E06 P0000 FZRANO
PAWM 140321Z AUTO 30005KT 4SM -RA BR FEW004 BKN010 OVC025 01/01 A2936 RMK AO2 UPB00E06 CIG 008V012 P0000 FZRANO
PAWM 140256Z AUTO 30004KT 5SM -RA BR OVC012 02/01 A2935 RMK AO2 UPB22E27 SLP944 P0000 60000 T00170011 53000 FZRANO
PAWM 140215Z AUTO 30004KT 10SM -RA OVC014 02/01 A2935 RMK AO2 P0000 FZRANO
PAWM 140156Z AUTO 31005KT 10SM -RA BKN016 OVC085 02/01 A2935 RMK AO2 SLP941 P0000 T00170011 FZRANO
PAWM 140124Z AUTO 33006KT 10SM -RA BKN028 OVC035 02/01 A2934 RMK AO2 P0000 FZRANO
PAWM 140056Z AUTO 32003KT 10SM -RA BKN030 OVC039 02/01 A2935 RMK AO2 SLP941 P0000 T00170011 FZRANO
PAWM 132356Z AUTO 31005KT 10SM -RA FEW022 OVC035 02/01 A2935 RMK AO2 SLP944 P0000 60000 T00170006 10022 20011 56015 FZRANO
PAWM 132352Z AUTO 31006KT 10SM -RA SCT022 OVC033 02/01 A2935 RMK AO2 P0000 FZRANO
PAWM 132256Z AUTO 10003KT 10SM -RA OVC018 02/01 A2938 RMK AO2 UPE33RAB33 SLP953 P0000 T00220011 FZRANO
PAWM 132156Z AUTO 11003KT 10SM UP OVC022 02/01 A2940 RMK AO2 UPB08RAB21E32 SLP959 P0000 T00220011 FZRANO
PAWM 132119Z AUTO 11007KT 10SM UP BKN022 BKN038 OVC048 02/01 A2940 RMK AO2 UPB08 P0000 FZRANO
PAWM 132056Z AUTO 11006KT 10SM SCT020 BKN034 OVC075 02/01 A2940 RMK AO2 UPE05 SLP960 P0000 60000 T00170006 58014 FZRANO
PAWM 132038Z AUTO 11008KT 10SM FEW019 BKN060 OVC070 02/01 A2942 RMK AO2 UPE05 P0000 FZRANO
PAWM 131922Z AUTO 12012KT 10SM UP BKN022 OVC050 02/01 A2944 RMK AO2 UPB22 P0000 FZRANO
PAWM 131856Z AUTO 12010KT 10SM BKN050 OVC065 02/00 A2943 RMK AO2 SLP971 T00170000 FZRANO
PAWM 131842Z AUTO 12009KT 10SM SCT027 OVC060 02/01 A2943 RMK AO2 FZRANO